createdAt,value
2018-09-14T00:01:35.318Z,99470.84
2018-09-14T00:04:04.009Z,99478.92
2018-09-14T00:06:32.739Z,99474.53
2018-09-14T00:09:01.430Z,99474.73
2018-09-14T00:11:30.181Z,99475.67
2018-09-14T00:13:59.030Z,99480.29
2018-09-14T00:16:27.828Z,99481.74
2018-09-14T00:18:56.533Z,99475.84
2018-09-14T00:21:25.304Z,99477.78
2018-09-14T00:23:53.996Z,99477.50
2018-09-14T00:26:22.676Z,99473.33
2018-09-14T00:28:51.400Z,99469.96
2018-09-14T00:31:20.118Z,99477.10
2018-09-14T00:33:48.793Z,99480.16
2018-09-14T00:36:17.497Z,99477.13
2018-09-14T00:38:46.186Z,99479.14
2018-09-14T00:41:14.902Z,99480.93
2018-09-14T00:43:43.840Z,99473.27
2018-09-14T00:46:12.581Z,99472.81
2018-09-14T00:48:41.297Z,99473.66
2018-09-14T00:51:10.143Z,99477.10
2018-09-14T00:53:38.920Z,99477.63
2018-09-14T00:56:07.612Z,99477.10
2018-09-14T00:58:36.321Z,99478.61
2018-09-14T01:01:05.028Z,99480.47
2018-09-14T01:03:33.703Z,99481.94
2018-09-14T01:06:02.421Z,99485.75
2018-09-14T01:08:31.181Z,99477.84
2018-09-14T01:10:59.890Z,99476.08
2018-09-14T01:13:28.844Z,99479.39
2018-09-14T01:15:57.502Z,99481.28
2018-09-14T01:18:26.253Z,99469.30
2018-09-14T01:20:54.874Z,99473.55
2018-09-14T01:23:23.527Z,99472.36
2018-09-14T01:25:52.151Z,99469.80
2018-09-14T01:28:20.769Z,99470.73
2018-09-14T01:30:49.661Z,99471.27
2018-09-14T01:33:23.813Z,99475.20
2018-09-14T01:35:57.698Z,99480.36
2018-09-14T01:38:26.474Z,99482.39
2018-09-14T01:40:55.111Z,99487.05
2018-09-14T01:43:25.517Z,99482.02
2018-09-14T01:45:54.133Z,99488.62
2018-09-14T01:48:22.726Z,99484.38
2018-09-14T01:50:51.401Z,99490.83
2018-09-14T01:53:19.996Z,99484.99
2018-09-14T01:55:48.651Z,99485.06
2018-09-14T01:58:17.322Z,99484.25
2018-09-14T02:00:46.003Z,99481.36
2018-09-14T02:03:14.746Z,99485.09
2018-09-14T02:05:43.382Z,99483.95
2018-09-14T02:08:12.065Z,99483.39
2018-09-14T02:10:40.723Z,99478.62
2018-09-14T02:13:09.409Z,99480.05
2018-09-14T02:15:38.109Z,99481.45
2018-09-14T02:18:06.845Z,99479.32
2018-09-14T02:20:35.535Z,99475.37
2018-09-14T02:23:04.172Z,99475.02
2018-09-14T02:25:32.815Z,99477.52
2018-09-14T02:28:01.444Z,99479.09
2018-09-14T02:30:30.158Z,99473.09
2018-09-14T02:32:58.778Z,99477.11
2018-09-14T02:35:27.401Z,99471.46
2018-09-14T02:37:56.026Z,99477.91
2018-09-14T02:40:24.616Z,99474.61
2018-09-14T02:42:53.224Z,99480.27
2018-09-14T02:45:21.834Z,99482.95
2018-09-14T02:47:50.459Z,99480.77
2018-09-14T02:50:19.078Z,99483.60
2018-09-14T02:52:47.946Z,99485.06
2018-09-14T02:55:16.630Z,99490.81
2018-09-14T02:57:45.222Z,99488.97
2018-09-14T03:00:13.881Z,99492.11
2018-09-14T03:02:42.507Z,99497.28
2018-09-14T03:05:11.144Z,99495.23
2018-09-14T03:07:39.999Z,99494.22
2018-09-14T03:10:08.679Z,99494.67
2018-09-14T03:12:37.271Z,99497.45
2018-09-14T03:15:05.904Z,99497.20
2018-09-14T03:17:34.541Z,99496.72
2018-09-14T03:20:03.188Z,99505.52
2018-09-14T03:22:31.821Z,99501.45
2018-09-14T03:25:00.485Z,99508.41
2018-09-14T03:27:29.133Z,99513.03
2018-09-14T03:29:57.785Z,99512.91
2018-09-14T03:32:26.571Z,99514.50
2018-09-14T03:34:55.493Z,99509.66
2018-09-14T03:37:24.160Z,99512.75
2018-09-14T03:39:52.879Z,99508.69
2018-09-14T03:42:21.778Z,99502.16
2018-09-14T03:44:50.459Z,99506.27
2018-09-14T03:47:19.082Z,99511.86
2018-09-14T03:49:47.719Z,99504.30
2018-09-14T03:52:16.344Z,99504.52
2018-09-14T03:54:45.027Z,99507.28
2018-09-14T03:57:13.706Z,99515.41
2018-09-14T03:59:42.309Z,99510.27
2018-09-14T04:02:10.923Z,99510.89
2018-09-14T04:04:39.608Z,99512.14
2018-09-14T04:07:08.214Z,99510.91
2018-09-14T04:09:36.845Z,99507.41
2018-09-14T04:12:05.447Z,99513.83
2018-09-14T04:14:34.110Z,99514.81
2018-09-14T04:17:02.747Z,99522.44
2018-09-14T04:19:31.383Z,99527.13
2018-09-14T04:22:00.096Z,99534.81
2018-09-14T04:24:28.698Z,99534.58
2018-09-14T04:26:57.341Z,99530.00
2018-09-14T04:29:25.932Z,99535.48
2018-09-14T04:31:54.645Z,99539.43
2018-09-14T04:34:23.298Z,99534.02
2018-09-14T04:36:51.953Z,99539.22
2018-09-14T04:39:20.623Z,99537.80
2018-09-14T04:41:49.357Z,99538.77
2018-09-14T04:44:18.047Z,99542.66
2018-09-14T04:46:46.752Z,99541.27
2018-09-14T04:49:15.419Z,99546.33
2018-09-14T04:51:44.127Z,99549.59
2018-09-14T04:54:12.818Z,99548.77
2018-09-14T04:56:41.484Z,99548.36
2018-09-14T04:59:10.171Z,99548.12
2018-09-14T05:01:38.914Z,99544.67
2018-09-14T05:04:07.629Z,99536.73
2018-09-14T05:06:36.247Z,99542.42
2018-09-14T05:09:06.748Z,99548.69
2018-09-14T05:11:35.432Z,99554.75
2018-09-14T05:14:04.138Z,99550.25
2018-09-14T05:16:32.872Z,99544.39
2018-09-14T05:19:01.689Z,99552.41
2018-09-14T05:21:30.397Z,99553.81
2018-09-14T05:23:59.228Z,99555.39
2018-09-14T05:26:27.880Z,99565.66
2018-09-14T05:28:56.561Z,99562.36
2018-09-14T05:31:25.214Z,99570.54
2018-09-14T05:33:53.866Z,99567.86
2018-09-14T05:36:22.519Z,99583.59
2018-09-14T05:38:51.218Z,99578.01
2018-09-14T05:41:19.885Z,99577.64
2018-09-14T05:43:48.578Z,99581.18
2018-09-14T05:46:17.298Z,99591.33
2018-09-14T05:48:46.010Z,99577.19
2018-09-14T05:51:14.662Z,99582.75
2018-09-14T05:53:43.308Z,99577.09
2018-09-14T05:56:11.961Z,99587.50
2018-09-14T05:58:40.582Z,99589.16
2018-09-14T06:01:09.187Z,99588.06
2018-09-14T06:03:37.848Z,99587.13
2018-09-14T06:06:06.523Z,99590.20
2018-09-14T06:08:35.120Z,99590.85
2018-09-14T06:11:03.798Z,99596.25
2018-09-14T06:13:32.429Z,99599.21
2018-09-14T06:16:01.056Z,99609.09
2018-09-14T06:18:29.708Z,99612.67
2018-09-14T06:20:58.494Z,99616.97
2018-09-14T06:23:27.148Z,99619.50
2018-09-14T06:25:55.791Z,99621.19
2018-09-14T06:28:24.581Z,99625.53
2018-09-14T06:30:53.222Z,99620.05
2018-09-14T06:33:21.854Z,99617.14
2018-09-14T06:35:53.485Z,99617.04
2018-09-14T06:38:22.220Z,99622.07
2018-09-14T06:40:50.848Z,99625.59
2018-09-14T06:43:19.473Z,99616.77
2018-09-14T06:45:48.077Z,99620.66
2018-09-14T06:48:16.738Z,99615.92
2018-09-14T06:50:45.363Z,99619.02
2018-09-14T06:53:14.009Z,99623.16
2018-09-14T06:55:42.654Z,99620.95
2018-09-14T06:58:11.266Z,99624.86
2018-09-14T07:00:39.829Z,99634.98
2018-09-14T07:03:08.438Z,99627.48
2018-09-14T07:05:37.638Z,99627.96
2018-09-14T07:08:06.272Z,99633.29
2018-09-14T07:10:34.916Z,99628.91
2018-09-14T07:13:03.598Z,99638.95
2018-09-14T07:15:32.227Z,99640.42
2018-09-14T07:18:00.920Z,99653.67
2018-09-14T07:20:29.563Z,99647.58
2018-09-14T07:22:58.275Z,99654.41
2018-09-14T07:25:26.941Z,99659.40
2018-09-14T07:27:55.595Z,99666.28
2018-09-14T07:30:29.823Z,99669.81
2018-09-14T07:32:58.530Z,99663.48
2018-09-14T07:35:27.159Z,99674.95
2018-09-14T07:37:56.560Z,99677.73
2018-09-14T07:40:25.212Z,99682.70
2018-09-14T07:42:53.884Z,99677.48
2018-09-14T07:45:22.494Z,99681.18
2018-09-14T07:47:51.131Z,99682.42
2018-09-14T07:50:19.755Z,99693.22
2018-09-14T07:52:48.362Z,99699.88
2018-09-14T07:55:16.996Z,99704.41
2018-09-14T07:57:45.679Z,99710.45
2018-09-14T08:00:14.323Z,99709.81
2018-09-14T08:02:42.940Z,99711.42
2018-09-14T08:05:11.536Z,99719.09
2018-09-14T08:07:40.202Z,99721.64
2018-09-14T08:10:08.847Z,99721.35
2018-09-14T08:12:37.507Z,99722.84
2018-09-14T08:15:06.136Z,99716.09
2018-09-14T08:17:34.807Z,99720.75
2018-09-14T08:20:03.498Z,99717.38
2018-09-14T08:22:32.163Z,99714.80
2018-09-14T08:25:00.879Z,99713.23
2018-09-14T08:27:29.612Z,99716.22
2018-09-14T08:29:58.288Z,99711.14
2018-09-14T08:32:27.057Z,99726.05
2018-09-14T08:34:55.654Z,99708.73
2018-09-14T08:37:24.328Z,99711.05
2018-09-14T08:39:52.985Z,99708.12
2018-09-14T08:42:21.590Z,99713.80
2018-09-14T08:44:50.286Z,99726.23
2018-09-14T08:47:19.095Z,99724.16
2018-09-14T08:49:47.738Z,99726.80
2018-09-14T08:52:16.401Z,99720.45
2018-09-14T08:54:45.214Z,99716.03
2018-09-14T08:57:13.843Z,99719.05
2018-09-14T08:59:42.492Z,99719.71
2018-09-14T09:02:11.161Z,99723.70
2018-09-14T09:04:39.786Z,99718.95
2018-09-14T09:07:08.646Z,99728.19
2018-09-14T09:09:37.399Z,99730.61
2018-09-14T09:12:06.091Z,99727.23
2018-09-14T09:14:34.780Z,99732.53
2018-09-14T09:17:03.540Z,99734.80
2018-09-14T09:19:32.227Z,99738.53
2018-09-14T09:22:00.899Z,99743.57
2018-09-14T09:24:29.547Z,99733.87
2018-09-14T09:26:58.159Z,99738.35
2018-09-14T09:29:26.858Z,99734.03
2018-09-14T09:31:55.502Z,99740.96
2018-09-14T09:34:24.192Z,99748.49
2018-09-14T09:36:52.813Z,99750.84
2018-09-14T09:39:21.442Z,99754.00
2018-09-14T09:41:50.096Z,99755.47
2018-09-14T09:44:18.692Z,99751.02
2018-09-14T09:46:47.347Z,99751.19
2018-09-14T09:49:16.002Z,99744.31
2018-09-14T09:51:44.622Z,99738.80
2018-09-14T09:54:13.298Z,99745.78
2018-09-14T09:56:42.091Z,99742.98
2018-09-14T09:59:10.738Z,99743.52
2018-09-14T10:01:47.509Z,99737.56
2018-09-14T10:04:32.197Z,99727.47
2018-09-14T10:07:00.833Z,99735.50
2018-09-14T10:09:29.621Z,99739.89
2018-09-14T10:11:58.277Z,99736.11
2018-09-14T10:14:26.943Z,99734.36
2018-09-14T10:16:55.587Z,99735.25
2018-09-14T10:19:24.219Z,99733.82
2018-09-14T10:21:52.935Z,99734.89
2018-09-14T10:24:21.554Z,99721.80
2018-09-14T10:26:50.283Z,99726.99
2018-09-14T10:29:18.851Z,99727.11
2018-09-14T10:31:47.484Z,99727.25
2018-09-14T10:34:16.138Z,99721.73
2018-09-14T10:36:44.772Z,99728.84
2018-09-14T10:39:13.456Z,99725.23
2018-09-14T10:41:42.071Z,99725.39
2018-09-14T10:44:10.736Z,99720.63
2018-09-14T10:46:39.350Z,99722.66
2018-09-14T10:49:08.058Z,99716.84
2018-09-14T10:51:36.715Z,99708.88
2018-09-14T10:54:05.411Z,99716.09
2018-09-14T10:56:34.131Z,99720.58
2018-09-14T10:59:02.885Z,99712.07
2018-09-14T11:01:31.494Z,99713.95
2018-09-14T11:04:00.117Z,99710.87
2018-09-14T11:06:28.812Z,99715.66
2018-09-14T11:08:57.463Z,99713.08
2018-09-14T11:11:26.135Z,99718.09
2018-09-14T11:13:54.772Z,99712.00
2018-09-14T11:16:23.408Z,99706.44
2018-09-14T11:18:52.054Z,99711.98
2018-09-14T11:21:20.695Z,99712.56
2018-09-14T11:23:49.315Z,99709.05
2018-09-14T11:26:17.916Z,99714.09
2018-09-14T11:28:46.565Z,99707.97
2018-09-14T11:31:15.266Z,99717.97
2018-09-14T11:33:43.859Z,99706.33
2018-09-14T11:36:12.569Z,99704.05
2018-09-14T11:38:41.251Z,99708.84
2018-09-14T11:41:09.860Z,99714.88
2018-09-14T11:43:38.539Z,99718.14
2018-09-14T11:46:07.287Z,99708.64
2018-09-14T11:48:35.838Z,99709.32
2018-09-14T11:51:04.522Z,99716.20
2018-09-14T11:53:33.166Z,99711.22
2018-09-14T11:56:01.833Z,99710.27
2018-09-14T11:58:30.484Z,99717.67
2018-09-14T12:00:59.200Z,99712.78
2018-09-14T12:03:27.831Z,99710.19
2018-09-14T12:05:56.440Z,99705.81
2018-09-14T12:08:25.089Z,99713.19
2018-09-14T12:10:53.756Z,99714.55
2018-09-14T12:13:22.424Z,99712.08
2018-09-14T12:15:51.079Z,99709.54
2018-09-14T12:18:20.068Z,99704.37
2018-09-14T12:20:48.705Z,99704.76
2018-09-14T12:23:17.427Z,99710.19
2018-09-14T12:25:46.054Z,99714.91
2018-09-14T12:28:14.750Z,99711.05
2018-09-14T12:30:43.354Z,99715.23
2018-09-14T12:33:11.995Z,99714.91
2018-09-14T12:35:40.671Z,99711.09
2018-09-14T12:38:09.276Z,99720.45
2018-09-14T12:40:43.142Z,99720.88
2018-09-14T12:43:11.774Z,99725.98
2018-09-14T12:45:40.481Z,99724.63
2018-09-14T12:48:09.160Z,99726.55
2018-09-14T12:50:37.781Z,99731.99
2018-09-14T12:53:06.399Z,99730.52
2018-09-14T12:55:35.006Z,99724.92
2018-09-14T12:58:03.658Z,99721.06
2018-09-14T13:00:32.299Z,99723.23
2018-09-14T13:03:00.912Z,99723.16
2018-09-14T13:05:29.524Z,99719.23
2018-09-14T13:07:58.243Z,99718.77
2018-09-14T13:10:26.881Z,99719.91
2018-09-14T13:12:55.605Z,99715.63
2018-09-14T13:15:24.397Z,99716.19
2018-09-14T13:17:53.051Z,99717.13
2018-09-14T13:20:21.709Z,99719.53
2018-09-14T13:22:50.338Z,99722.23
2018-09-14T13:25:18.979Z,99722.89
2018-09-14T13:27:47.638Z,99725.98
2018-09-14T13:30:16.278Z,99728.28
2018-09-14T13:32:51.105Z,99727.44
2018-09-14T13:35:20.882Z,99727.41
2018-09-14T13:37:49.676Z,99732.05
2018-09-14T13:40:18.996Z,99723.95
2018-09-14T13:42:48.634Z,99721.48
2018-09-14T13:45:17.370Z,99720.98
2018-09-14T13:47:46.145Z,99721.70
2018-09-14T13:50:14.891Z,99722.28
2018-09-14T13:52:43.639Z,99723.05
2018-09-14T13:55:12.262Z,99729.44
2018-09-14T13:57:40.892Z,99721.63
2018-09-14T14:00:09.576Z,99725.51
2018-09-14T14:02:38.278Z,99728.27
2018-09-14T14:05:06.928Z,99722.68
2018-09-14T14:07:35.533Z,99725.55
2018-09-14T14:10:04.265Z,99722.59
2018-09-14T14:12:32.856Z,99718.91
2018-09-14T14:15:01.521Z,99722.81
2018-09-14T14:17:30.269Z,99719.17
2018-09-14T14:19:59.020Z,99727.66
2018-09-14T14:22:27.782Z,99730.91
2018-09-14T14:24:56.451Z,99732.70
2018-09-14T14:27:25.140Z,99732.41
2018-09-14T14:29:53.819Z,99735.61
2018-09-14T14:32:22.530Z,99738.63
2018-09-14T14:34:51.314Z,99744.42
2018-09-14T14:37:19.975Z,99746.73
2018-09-14T14:39:48.662Z,99753.98
2018-09-14T14:42:17.333Z,99752.13
2018-09-14T14:44:46.003Z,99756.32
2018-09-14T14:47:14.662Z,99749.03
2018-09-14T14:49:43.342Z,99751.52
2018-09-14T14:52:12.079Z,99748.10
2018-09-14T14:54:40.733Z,99754.75
2018-09-14T14:57:09.413Z,99750.93
2018-09-14T14:59:38.157Z,99749.78
2018-09-14T15:02:06.887Z,99753.39
2018-09-14T15:04:35.527Z,99758.96
2018-09-14T15:07:04.231Z,99751.31
2018-09-14T15:09:32.866Z,99753.39
2018-09-14T15:12:01.538Z,99758.05
2018-09-14T15:14:30.214Z,99761.72
2018-09-14T15:16:58.879Z,99761.66
2018-09-14T15:19:27.681Z,99754.93
2018-09-14T15:21:56.368Z,99766.12
2018-09-14T15:24:25.043Z,99762.52
2018-09-14T15:26:53.686Z,99767.71
2018-09-14T15:29:22.341Z,99772.31
2018-09-14T15:31:50.985Z,99765.27
2018-09-14T15:34:19.647Z,99769.62
2018-09-14T15:36:48.305Z,99758.98
2018-09-14T15:39:16.962Z,99761.12
2018-09-14T15:41:45.659Z,99762.37
2018-09-14T15:44:14.346Z,99767.46
2018-09-14T15:46:43.023Z,99757.47
2018-09-14T15:49:11.712Z,99757.92
2018-09-14T15:51:40.343Z,99761.44
2018-09-14T15:54:09.118Z,99768.08
2018-09-14T15:56:37.815Z,99785.13
2018-09-14T15:59:06.574Z,99763.57
2018-09-14T16:01:35.325Z,99765.48
2018-09-14T16:04:04.090Z,99761.02
2018-09-14T16:06:32.905Z,99764.75
2018-09-14T16:09:01.760Z,99764.45
2018-09-14T16:11:30.583Z,99765.19
2018-09-14T16:13:59.301Z,99761.46
2018-09-14T16:16:27.984Z,99771.59
2018-09-14T16:18:56.745Z,99765.78
2018-09-14T16:21:25.532Z,99763.95
2018-09-14T16:23:54.374Z,99760.03
2018-09-14T16:26:23.611Z,99760.86
2018-09-14T16:28:52.368Z,99758.44
2018-09-14T16:31:21.084Z,99759.66
2018-09-14T16:33:49.857Z,99763.93
2018-09-14T16:36:18.616Z,99768.28
2018-09-14T16:38:47.395Z,99764.16
2018-09-14T16:41:16.074Z,99766.59
2018-09-14T16:43:44.783Z,99767.80
2018-09-14T16:46:13.540Z,99753.73
2018-09-14T16:48:42.283Z,99758.45
2018-09-14T16:51:10.962Z,99759.23
2018-09-14T16:53:39.667Z,99759.83
2018-09-14T16:56:08.476Z,99767.66
2018-09-14T16:58:37.237Z,99755.88
2018-09-14T17:01:06.117Z,99762.36
2018-09-14T17:03:34.816Z,99781.56
2018-09-14T17:06:03.524Z,99775.88
2018-09-14T17:08:32.250Z,99775.67
2018-09-14T17:11:00.956Z,99783.84
2018-09-14T17:13:29.703Z,99787.56
2018-09-14T17:15:58.407Z,99789.98
2018-09-14T17:18:27.131Z,99791.00
2018-09-14T17:20:55.872Z,99796.11
2018-09-14T17:23:24.590Z,99795.47
2018-09-14T17:25:53.324Z,99794.58
2018-09-14T17:28:22.031Z,99800.22
2018-09-14T17:30:50.726Z,99810.85
2018-09-14T17:33:19.430Z,99807.27
2018-09-14T17:35:48.133Z,99810.14
2018-09-14T17:38:16.836Z,99812.03
2018-09-14T17:40:45.664Z,99821.41
2018-09-14T17:43:14.358Z,99820.52
2018-09-14T17:45:43.149Z,99834.25
2018-09-14T17:48:11.927Z,99829.06
2018-09-14T17:50:40.679Z,99828.30
2018-09-14T17:53:09.379Z,99828.75
2018-09-14T17:55:38.103Z,99831.33
2018-09-14T17:58:06.796Z,99832.64
2018-09-14T18:00:35.540Z,99835.41
2018-09-14T18:03:04.246Z,99840.45
2018-09-14T18:05:33.004Z,99843.00
2018-09-14T18:08:01.710Z,99837.16
2018-09-14T18:10:30.376Z,99839.95
2018-09-14T18:12:59.019Z,99839.06
2018-09-14T18:15:27.730Z,99843.39
2018-09-14T18:17:56.486Z,99840.67
2018-09-14T18:20:25.224Z,99842.52
2018-09-14T18:22:53.931Z,99848.12
2018-09-14T18:25:22.690Z,99844.17
2018-09-14T18:27:51.711Z,99856.52
2018-09-14T18:30:20.272Z,99850.53
2018-09-14T18:32:49.030Z,99849.09
2018-09-14T18:35:17.743Z,99849.37
2018-09-14T18:37:46.594Z,99845.29
2018-09-14T18:40:15.348Z,99855.30
2018-09-14T18:42:44.117Z,99855.80
2018-09-14T18:45:12.850Z,99863.77
2018-09-14T18:47:41.550Z,99863.53
2018-09-14T18:50:10.307Z,99867.81
2018-09-14T18:52:38.994Z,99861.28
2018-09-14T18:55:07.799Z,99867.95
2018-09-14T18:57:36.509Z,99865.11
2018-09-14T19:00:05.441Z,99855.94
2018-09-14T19:02:34.245Z,99870.78
2018-09-14T19:05:02.979Z,99857.54
2018-09-14T19:07:31.680Z,99856.83
2018-09-14T19:10:00.423Z,99855.58
2018-09-14T19:12:29.200Z,99857.91
2018-09-14T19:14:58.403Z,99856.24
2018-09-14T19:17:27.121Z,99850.20
2018-09-14T19:19:55.806Z,99853.25
2018-09-14T19:22:24.486Z,99855.84
2018-09-14T19:24:53.303Z,99854.37
2018-09-14T19:27:22.037Z,99850.30
2018-09-14T19:29:50.771Z,99852.36
2018-09-14T19:32:19.557Z,99849.31
2018-09-14T19:34:48.299Z,99854.32
2018-09-14T19:37:17.048Z,99861.59
2018-09-14T19:39:47.014Z,99853.55
2018-09-14T19:42:15.770Z,99861.65
2018-09-14T19:44:44.558Z,99865.19
2018-09-14T19:47:13.364Z,99866.67
2018-09-14T19:49:43.135Z,99877.17
2018-09-14T19:52:12.006Z,99870.78
2018-09-14T19:54:40.858Z,99867.66
2018-09-14T19:57:09.701Z,99858.80
2018-09-14T19:59:38.727Z,99862.09
2018-09-14T20:02:07.542Z,99868.23
2018-09-14T20:04:36.240Z,99874.94
2018-09-14T20:07:05.020Z,99878.82
2018-09-14T20:09:33.774Z,99871.84
2018-09-14T20:12:02.495Z,99867.42
2018-09-14T20:14:31.329Z,99866.34
2018-09-14T20:17:00.061Z,99868.31
2018-09-14T20:19:28.914Z,99868.31
2018-09-14T20:21:57.688Z,99866.89
2018-09-14T20:24:26.997Z,99873.63
2018-09-14T20:26:55.690Z,99874.48
2018-09-14T20:29:24.437Z,99874.03
2018-09-14T20:31:53.607Z,99871.97
2018-09-14T20:34:22.315Z,99865.72
2018-09-14T20:36:51.076Z,99871.70
2018-09-14T20:39:19.865Z,99870.23
2018-09-14T20:41:48.642Z,99875.59
2018-09-14T20:44:17.419Z,99877.66
2018-09-14T20:46:46.141Z,99869.75
2018-09-14T20:49:14.972Z,99876.63
2018-09-14T20:51:43.760Z,99876.04
2018-09-14T20:54:12.498Z,99874.30
2018-09-14T20:56:41.212Z,99874.30
2018-09-14T20:59:10.017Z,99875.45
2018-09-14T21:01:38.766Z,99876.04
2018-09-14T21:04:07.612Z,99872.59
2018-09-14T21:06:36.287Z,99878.77
2018-09-14T21:09:07.796Z,99880.64
2018-09-14T21:11:36.925Z,99876.34
2018-09-14T21:14:05.787Z,99874.16
2018-09-14T21:16:34.883Z,99881.68
2018-09-14T21:19:04.072Z,99884.83
2018-09-14T21:21:32.813Z,99885.56
2018-09-14T21:24:01.594Z,99878.22
2018-09-14T21:26:30.511Z,99879.97
2018-09-14T21:28:59.298Z,99873.22
2018-09-14T21:31:28.111Z,99876.98
2018-09-14T21:33:57.067Z,99879.28
2018-09-14T21:36:25.882Z,99872.91
2018-09-14T21:38:54.680Z,99874.71
2018-09-14T21:41:23.467Z,99878.72
2018-09-14T21:43:52.426Z,99877.91
2018-09-14T21:46:21.369Z,99881.38
2018-09-14T21:48:50.326Z,99885.43
2018-09-14T21:51:19.087Z,99884.75
2018-09-14T21:53:48.085Z,99888.72
2018-09-14T21:56:16.821Z,99886.94
2018-09-14T21:58:46.036Z,99888.04
2018-09-14T22:01:18.883Z,99882.81
2018-09-14T22:03:47.652Z,99888.44
2018-09-14T22:06:16.380Z,99889.61
2018-09-14T22:08:45.154Z,99886.22
2018-09-14T22:11:13.989Z,99885.25
2018-09-14T22:13:42.790Z,99886.17
2018-09-14T22:16:11.576Z,99886.78
2018-09-14T22:18:40.348Z,99895.97
2018-09-14T22:21:09.162Z,99886.45
2018-09-14T22:23:38.089Z,99889.38
2018-09-14T22:26:07.076Z,99893.53
2018-09-14T22:28:35.957Z,99892.97
2018-09-14T22:31:04.759Z,99891.59
2018-09-14T22:33:33.738Z,99888.20
2018-09-14T22:36:02.511Z,99899.49
2018-09-14T22:38:31.286Z,99898.68
2018-09-14T22:41:00.019Z,99902.44
2018-09-14T22:43:28.685Z,99893.91
2018-09-14T22:45:57.459Z,99895.23
2018-09-14T22:48:26.253Z,99904.50
2018-09-14T22:50:55.025Z,99897.55
2018-09-14T22:53:23.837Z,99895.64
2018-09-14T22:55:52.888Z,99893.70
2018-09-14T22:58:21.715Z,99895.97
2018-09-14T23:00:55.675Z,99899.49
2018-09-14T23:03:24.480Z,99890.10
2018-09-14T23:05:53.226Z,99891.64
2018-09-14T23:08:22.128Z,99896.05
2018-09-14T23:10:50.895Z,99891.27
2018-09-14T23:13:19.786Z,99893.83
2018-09-14T23:15:53.298Z,99899.28
2018-09-14T23:18:22.109Z,99899.75
2018-09-14T23:20:51.029Z,99896.30
2018-09-14T23:23:19.943Z,99895.03
2018-09-14T23:25:49.291Z,99893.00
2018-09-14T23:28:18.047Z,99888.66
2018-09-14T23:30:46.806Z,99885.10
2018-09-14T23:33:15.543Z,99882.12
2018-09-14T23:35:44.274Z,99881.67
2018-09-14T23:38:13.107Z,99883.27
2018-09-14T23:40:41.878Z,99877.85
2018-09-14T23:43:10.572Z,99882.39
2018-09-14T23:45:39.320Z,99886.37
2018-09-14T23:48:09.002Z,99892.73
2018-09-14T23:50:37.741Z,99886.84
2018-09-14T23:53:06.614Z,99891.08
2018-09-14T23:55:35.340Z,99882.36
2018-09-14T23:58:04.118Z,99881.30
